Station: Centre Island

  Atmospheric Gas Attenuation - ITU Rec 676-11   --------------- db/100km ---------------
Date Time Temp RH % AH g/m3 Dew Point Wind Direction Speed kph Gust kph Barometer mB Rainfall Since 9am 24GHz 47GHz 76GHz 122GHz 134GHz 241GHz
07 06:50 22.6 96 19.28 21.9 11 13 1012 0.2 41.8 41.7 81.0 214.3 236.5 821.0
07 06:40 22.7 96 19.39 22 9 11 1011.9 0.2 42.1 41.9 81.4 215.4 237.9 826.0
07 06:30 22.7 97 19.6 22.2 11 13 1011.7 0.2 42.5 42.3 82.4 218.1 241.3 837.7
07 06:20 22.6 96 19.28 21.9 9 11 1011.6 0.2 41.8 41.7 81.0 214.2 236.4 820.8
07 06:10 22.5 95 18.97 21.7 9 11 1011.4 0.2 41.2 41.1 79.5 210.4 231.7 804.4
07 06:00 22.5 95 18.97 21.7 9 11 1011.3 0.2 41.2 41.1 79.5 210.4 231.7 804.4
07 05:50 22.6 95 19.08 21.8 11 13 1011.2 0.2 41.4 41.3 80.0 211.5 233.1 809.4
07 05:40 22.5 94 18.77 21.5 9 9 1011.1 0.2 40.7 40.7 78.5 207.8 228.5 793.2
07 05:30 22.6 93 18.68 21.4 9 9 1011.1 0.2 40.5 40.5 78.0 206.3 226.7 787.2
07 05:20 22.7 92 18.59 21.3 9 9 1011.1 0.2 40.3 40.3 77.5 204.9 225.0 781.2
07 05:10 22.9 92 18.8 21.5 7 7 1011.1 0.2 40.8 40.6 78.3 207.0 227.7 790.6
07 04:50 22.9 87 17.78 20.6 0 0 1011 0.2 38.6 38.6 73.4 194.0 211.8 735.1
07 04:40 23.3 88 18.4 21.2 0 0 1010.9 0.2 39.9 39.6 75.9 200.8 220.2 764.5
07 04:30 23.7 87 18.61 21.4 2 6 1011 0.2 40.3 39.8 76.5 202.4 222.3 771.9
07 04:20 23.8 86 18.5 21.3 0 0 1010.9 0.2 40.0 39.6 75.9 200.7 220.3 764.9
07 04:10 24 86 18.71 21.5 0 0 1010.9 0.2 40.5 39.9 76.7 202.9 222.9 774.2
07 04:00 24.1 86 18.82 21.6 2 6 1010.9 0.2 40.7 40.0 77.1 204.0 224.3 779.1
07 03:50 24.1 86 18.82 21.6 0 0 1010.8 0.2 40.7 40.0 77.1 204.0 224.3 779.0
07 03:40 24.1 86 18.82 21.6 6 6 1010.8 0.2 40.7 40.0 77.1 204.0 224.3 779.0
07 03:30 24.1 86 18.82 21.6 0 6 1010.7 0.2 40.7 40.0 77.1 204.0 224.3 779.0
07 03:20 24.1 86 18.82 21.6 0 0 1010.7 0.2 40.7 40.0 77.1 204.0 224.3 779.0
07 03:10 24.1 86 18.82 21.6 0 0 1010.8 0.2 40.7 40.0 77.1 204.0 224.3 779.0
07 03:00 24.1 86 18.82 21.6 9 11 1010.8 0.2 40.7 40.0 77.1 204.0 224.3 779.0
07 02:50 24.1 85 18.6 21.4 9 11 1010.9 0.2 40.2 39.6 76.1 201.2 220.9 767.2
07 02:40 24.1 85 18.6 21.4 9 11 1011 0.2 40.2 39.6 76.1 201.2 220.9 767.3
07 02:30 24.1 85 18.6 21.4 6 9 1011.1 0.2 40.2 39.6 76.1 201.2 221.0 767.3
07 02:20 24 86 18.71 21.5 7 9 1011.1 0.2 40.5 39.9 76.7 202.9 223.0 774.3
07 02:10 23.9 86 18.6 21.4 13 15 1011.1 0.2 40.2 39.7 76.3 201.8 221.5 769.3
07 02:00 23.8 88 18.93 21.7 15 24 1011.1 0.2 41.0 40.4 78.0 206.2 227.0 788.3
07 01:50 23.8 89 19.14 21.9 19 20 1011 0.2 41.4 40.8 79.0 208.9 230.3 799.7
07 01:40 23.8 89 19.14 21.9 11 15 1011 0.2 41.4 40.8 79.0 208.9 230.3 799.7
07 01:30 23.7 88 18.82 21.6 11 20 1010.9 0.2 40.7 40.2 77.5 205.1 225.5 783.2
07 01:20 23.7 88 18.82 21.6 19 22 1010.5 0.2 40.7 40.2 77.5 205.0 225.5 783.0
07 01:10 23.8 88 18.93 21.7 24 26 1010.3 0.2 41.0 40.4 77.9 206.1 226.9 787.9
07 01:00 23.7 88 18.82 21.6 22 30 1010.4 0.2 40.7 40.2 77.5 205.0 225.5 783.0
07 00:50 23.6 88 18.72 21.5 19 26 1010.4 0.2 40.5 40.1 77.1 204.0 224.2 778.6
07 00:40 23.5 88 18.61 21.4 19 24 1010.4 0.2 40.3 39.9 76.7 202.9 222.8 773.6
07 00:30 23.4 88 18.5 21.3 20 24 1010.4 0.2 40.1 39.7 76.3 201.7 221.4 768.7
07 00:20 23.5 88 18.61 21.4 20 24 1010.5 0.2 40.3 39.9 76.7 202.9 222.8 773.7
07 00:10 23.5 87 18.4 21.2 22 26 1010.5 0.2 39.9 39.5 75.7 200.2 219.5 762.3
07 00:00 23.5 87 18.4 21.2 20 28 1010.6 0.2 39.9 39.5 75.7 200.2 219.6 762.3
06 23:50 23.4 87 18.29 21.1 22 26 1010.6 0.2 39.6 39.3 75.3 199.1 218.1 757.4
06 23:40 23.3 88 18.4 21.2 22 26 1010.6 0.2 39.9 39.6 75.9 200.8 220.1 764.4
06 23:30 23.2 90 18.71 21.5 20 28 1010.7 0.2 40.5 40.2 77.5 205.0 225.3 782.3
06 23:20 23.1 91 18.81 21.5 19 24 1010.7 0.2 40.8 40.5 78.1 206.5 227.2 788.9
06 23:10 23.1 93 19.22 21.9 19 24 1010.7 0.2 41.6 41.3 80.1 211.9 233.7 811.5
06 23:00 23.1 94 19.43 22.1 19 24 1010.8 0.2 42.1 41.7 81.1 214.6 237.1 823.2
06 22:50 23.2 94 19.54 22.2 20 24 1010.9 0.2 42.3 41.9 81.5 215.8 238.5 828.3
06 22:40 23.2 93 19.33 22 20 26 1010.8 0.2 41.9 41.5 80.5 213.0 235.2 816.5
06 22:30 23.2 93 19.33 22 20 28 1010.8 0.2 41.9 41.5 80.5 213.0 235.2 816.5
06 22:20 23.2 93 19.33 22 20 22 1010.8 0.2 41.9 41.5 80.5 213.0 235.2 816.5
06 22:10 23.3 92 19.23 21.9 22 26 1010.7 0.2 41.6 41.2 79.9 211.4 233.2 809.9
06 22:00 23.3 92 19.23 21.9 24 30 1010.7 0.2 41.6 41.2 79.9 211.4 233.2 809.9
06 21:50 23.2 92 19.13 21.8 22 28 1010.7 0.2 41.4 41.1 79.5 210.4 231.9 805.4
06 21:40 23.1 93 19.22 21.9 20 26 1010.6 0.2 41.7 41.3 80.1 211.8 233.7 811.4
06 21:30 23.1 92 19.02 21.7 20 26 1010.6 0.2 41.2 40.9 79.1 209.2 230.5 800.4
06 21:20 23.1 91 18.81 21.5 19 22 1010.6 0.2 40.8 40.5 78.1 206.5 227.2 788.8
06 21:10 23.1 90 18.6 21.4 20 22 1010.5 0.2 40.3 40.1 77.1 203.8 223.9 777.2
06 21:00 23.2 89 18.5 21.3 19 24 1010.5 0.2 40.1 39.8 76.5 202.3 222.0 770.8
06 20:50 23 89 18.29 21.1 17 19 1010.5 0.2 39.7 39.5 75.7 200.1 219.3 761.4
06 20:40 23 89 18.29 21.1 15 17 1010.4 0.2 39.7 39.5 75.7 200.1 219.3 761.3
06 20:30 23.1 89 18.4 21.2 15 20 1010.3 0.2 39.9 39.7 76.1 201.2 220.7 766.3
06 20:20 23.1 90 18.6 21.4 19 20 1010.2 0.2 40.3 40.1 77.0 203.8 223.8 777.1
06 20:10 23.1 91 18.81 21.5 17 22 1010.1 0.2 40.8 40.5 78.0 206.5 227.1 788.5
06 20:00 23.1 92 19.02 21.7 17 22 1010 0.2 41.2 40.9 79.0 209.1 230.4 800.0
06 19:50 23.1 92 19.02 21.7 19 22 1009.9 0.2 41.2 40.9 79.0 209.1 230.4 800.0
06 19:40 23.2 92 19.13 21.8 19 22 1009.7 0.2 41.5 41.0 79.5 210.2 231.8 804.9
06 19:30 23.3 91 19.03 21.7 24 30 1009.6 0.2 41.2 40.8 78.9 208.7 229.9 798.2
06 19:20 23.4 89 18.71 21.5 24 28 1009.4 0.2 40.5 40.1 77.2 204.2 224.5 779.6
06 19:10 23.5 88 18.61 21.4 22 26 1009.3 0.2 40.3 39.8 76.6 202.7 222.6 773.0
06 19:00 23.5 86 18.19 21 19 26 1009.2 0.2 39.4 39.0 74.6 197.4 216.1 750.3
06 18:50 23.5 86 18.19 21 20 24 1009.1 0.2 39.4 39.0 74.6 197.3 216.1 750.3
06 18:40 23.5 86 18.19 21 19 20 1009 0.2 39.4 39.0 74.6 197.3 216.1 750.2
06 18:30 23.8 85 18.28 21.1 20 30 1009 0.2 39.6 39.1 74.7 197.7 216.6 752.0
06 18:20 23.8 86 18.5 21.3 22 24 1009 0.2 40.0 39.5 75.8 200.4 220.0 763.9
06 18:10 23.7 85 18.18 21 22 26 1008.9 0.2 39.4 38.9 74.3 196.7 215.3 747.6
06 18:00 24 84 18.27 21.1 22 30 1008.8 0.2 39.5 38.9 74.5 197.0 215.8 749.4
06 17:50 24 83 18.06 20.9 22 28 1008.5 0.2 39.1 38.5 73.5 194.3 212.6 738.1
06 17:40 24.3 81 17.92 20.8 22 28 1008.3 0.2 38.8 38.1 72.5 191.8 209.5 727.7
06 17:30 25.1 76 17.59 20.6 22 33 1008.3 0.2 38.0 37.2 70.2 185.8 202.4 702.9
06 17:20 27.2 61 15.87 19 15 17 1008.3 0.2 34.2 33.3 60.9 161.1 172.7 599.6
06 17:10 27.8 58 15.6 18.8 13 17 1008.2 0.2 33.5 32.6 59.4 156.8 167.6 582.2
06 17:00 27.6 57 15.16 18.3 19 26 1008.2 0.2 32.6 31.9 57.7 152.4 162.1 563.0
06 16:50 27.8 58 15.6 18.8 20 22 1008.2 0.2 33.5 32.6 59.4 156.8 167.6 582.2
06 16:40 27.7 59 15.78 19 20 26 1008.2 0.2 33.9 32.9 60.2 159.0 170.3 591.4
06 16:30 27.9 58 15.69 19.1 17 24 1008.2 0.2 33.7 32.7 59.6 157.6 168.6 585.7
06 16:20 28.2 57 15.67 18.9 17 20 1008.2 0.2 33.7 32.6 59.3 156.8 167.7 582.5
06 16:10 28.3 56 15.48 18.7 20 24 1008.3 0.2 33.3 32.2 58.5 154.5 165.0 572.9
06 16:00 28.5 55 15.37 18.6 19 26 1008.4 0.2 33.0 32.0 57.9 153.0 163.1 566.4
06 15:50 28.6 56 15.74 19 20 22 1008.4 0.2 33.8 32.5 59.3 156.8 167.8 582.9
06 15:40 28.4 55 15.29 18.5 22 26 1008.4 0.2 32.8 31.9 57.6 152.3 162.2 563.4
06 15:30 28.7 55 15.54 18.8 20 32 1008.4 0.2 33.3 32.2 58.4 154.4 164.9 572.8
06 15:20 28.6 55 15.46 18.7 22 28 1008.5 0.2 33.2 32.1 58.2 153.8 164.1 569.9
06 15:10 29.5 55 16.24 19.5 15 20 1008.5 0.2 34.7 33.0 60.7 160.5 172.6 599.5
06 15:00 28.9 52 14.86 18.1 22 32 1008.5 0.2 31.9 31.0 55.6 146.8 155.5 540.1
06 14:50 28.9 52 14.86 18.1 24 30 1008.6 0.2 31.9 31.0 55.6 146.8 155.6 540.2
06 14:40 29.1 51 14.73 18.2 24 30 1008.8 0.2 31.6 30.7 54.9 145.1 153.5 533.0
06 14:30 29.6 52 15.43 18.7 22 32 1008.9 0.2 33.0 31.7 57.4 151.6 161.6 561.4
06 14:20 29.3 52 15.18 18.7 24 30 1009 0.2 32.5 31.4 56.6 149.5 159.0 552.2
06 14:10 29.2 51 14.81 18.3 26 30 1009.1 0.2 31.8 30.8 55.2 145.8 154.4 536.1

Last Refresh: 07-Aug-2020 07:07:33

Most of the information presented on this site is sourced from the Bureau of Meteorology.  Copyright in all material sourced from the Bureau of Meteorology resides with the Commonwealth of Australia.